createdAt,value
2018-12-22T00:00:34.337Z,69.47
2018-12-22T00:01:38.469Z,69.27
2018-12-22T00:02:42.601Z,69.14
2018-12-22T00:03:46.753Z,69.35
2018-12-22T00:04:50.787Z,69.26
2018-12-22T00:05:55.018Z,69.35
2018-12-22T00:06:59.278Z,69.39
2018-12-22T00:08:03.402Z,69.29
2018-12-22T00:09:07.480Z,69.19
2018-12-22T00:10:11.485Z,69.25
2018-12-22T00:11:15.534Z,69.17
2018-12-22T00:12:19.563Z,69.31
2018-12-22T00:13:23.549Z,69.42
2018-12-22T00:14:27.673Z,69.44
2018-12-22T00:15:32.162Z,69.10
2018-12-22T00:16:36.264Z,69.46
2018-12-22T00:17:40.277Z,69.40
2018-12-22T00:18:44.388Z,69.32
2018-12-22T00:19:48.406Z,69.55
2018-12-22T00:20:52.455Z,69.34
2018-12-22T00:21:56.482Z,69.07
2018-12-22T00:23:00.658Z,69.47
2018-12-22T00:24:04.688Z,69.36
2018-12-22T00:25:08.717Z,69.50
2018-12-22T00:26:12.786Z,69.34
2018-12-22T00:27:17.527Z,69.63
2018-12-22T00:28:22.257Z,69.36
2018-12-22T00:29:26.667Z,69.50
2018-12-22T00:30:30.723Z,69.70
2018-12-22T00:31:34.856Z,69.63
2018-12-22T00:32:38.920Z,69.62
2018-12-22T00:33:42.939Z,69.61
2018-12-22T00:34:51.788Z,69.63
2018-12-22T00:35:55.947Z,69.67
2018-12-22T00:37:00.031Z,69.87
2018-12-22T00:38:04.058Z,69.87
2018-12-22T00:39:08.235Z,70.02
2018-12-22T00:40:12.288Z,69.85
2018-12-22T00:41:16.368Z,70.26
2018-12-22T00:42:20.407Z,70.14
2018-12-22T00:43:24.527Z,69.99
2018-12-22T00:44:28.649Z,70.15
2018-12-22T00:45:32.746Z,70.13
2018-12-22T00:46:36.859Z,70.31
2018-12-22T00:47:40.876Z,70.46
2018-12-22T00:48:44.987Z,70.31
2018-12-22T00:49:49.009Z,70.36
2018-12-22T00:50:53.203Z,70.39
2018-12-22T00:51:57.220Z,70.54
2018-12-22T00:53:01.273Z,70.63
2018-12-22T00:54:05.365Z,70.64
2018-12-22T00:55:09.521Z,70.81
2018-12-22T00:56:13.692Z,70.95
2018-12-22T00:57:17.760Z,70.76
2018-12-22T00:58:21.761Z,71.28
2018-12-22T00:59:25.819Z,71.21
2018-12-22T01:00:29.825Z,71.31
2018-12-22T01:01:33.875Z,71.44
2018-12-22T01:02:38.009Z,71.78
2018-12-22T01:03:42.021Z,71.88
2018-12-22T01:04:46.123Z,71.88
2018-12-22T01:05:50.159Z,72.10
2018-12-22T01:06:54.324Z,72.07
2018-12-22T01:07:58.787Z,72.20
2018-12-22T01:09:03.998Z,72.12
2018-12-22T01:10:08.807Z,72.32
2018-12-22T01:11:12.897Z,72.39
2018-12-22T01:12:16.928Z,72.49
2018-12-22T01:13:21.034Z,72.68
2018-12-22T01:14:25.091Z,72.42
2018-12-22T01:15:29.186Z,72.73
2018-12-22T01:16:33.175Z,73.00
2018-12-22T01:17:37.206Z,73.08
2018-12-22T01:18:41.220Z,73.01
2018-12-22T01:19:45.298Z,73.22
2018-12-22T01:20:49.475Z,73.23
2018-12-22T01:21:53.517Z,73.30
2018-12-22T01:22:57.556Z,73.56
2018-12-22T01:24:01.559Z,73.62
2018-12-22T01:25:06.316Z,73.57
2018-12-22T01:26:10.467Z,73.62
2018-12-22T01:27:14.522Z,73.83
2018-12-22T01:28:18.537Z,73.84
2018-12-22T01:29:22.594Z,73.67
2018-12-22T01:30:26.581Z,73.89
2018-12-22T01:31:30.775Z,74.10
2018-12-22T01:32:34.858Z,74.08
2018-12-22T01:33:38.968Z,74.14
2018-12-22T01:34:43.001Z,74.15
2018-12-22T01:35:47.010Z,74.15
2018-12-22T01:36:51.157Z,74.30
2018-12-22T01:37:55.193Z,74.33
2018-12-22T01:38:59.272Z,74.39
2018-12-22T01:40:03.454Z,74.57
2018-12-22T01:41:07.735Z,74.40
2018-12-22T01:42:11.921Z,74.47
2018-12-22T01:43:15.921Z,74.41
2018-12-22T01:44:19.937Z,74.57
2018-12-22T01:45:23.995Z,74.66
2018-12-22T01:46:28.019Z,74.44
2018-12-22T01:47:32.090Z,74.46
2018-12-22T01:48:36.129Z,74.62
2018-12-22T01:49:40.217Z,74.71
2018-12-22T01:50:44.321Z,74.72
2018-12-22T01:51:48.781Z,74.63
2018-12-22T01:52:52.858Z,74.76
2018-12-22T01:53:57.035Z,74.98
2018-12-22T01:55:01.008Z,74.66
2018-12-22T01:56:05.243Z,74.69
2018-12-22T01:57:09.242Z,74.66
2018-12-22T01:58:13.297Z,74.91
2018-12-22T01:59:17.305Z,74.71
2018-12-22T02:00:21.693Z,74.98
2018-12-22T02:01:25.765Z,74.57
2018-12-22T02:02:29.890Z,74.78
2018-12-22T02:03:34.014Z,74.70
2018-12-22T02:04:38.028Z,74.49
2018-12-22T02:05:42.025Z,74.65
2018-12-22T02:06:46.103Z,74.46
2018-12-22T02:07:50.129Z,74.40
2018-12-22T02:08:54.317Z,74.52
2018-12-22T02:09:58.362Z,74.51
2018-12-22T02:11:02.345Z,74.44
2018-12-22T02:12:06.374Z,74.35
2018-12-22T02:13:10.393Z,74.06
2018-12-22T02:14:14.490Z,73.96
2018-12-22T02:15:18.519Z,74.10
2018-12-22T02:16:22.655Z,74.25
2018-12-22T02:17:26.645Z,74.33
2018-12-22T02:18:30.654Z,74.13
2018-12-22T02:19:38.035Z,74.13
2018-12-22T02:20:42.226Z,74.19
2018-12-22T02:21:46.275Z,74.06
2018-12-22T02:22:50.290Z,74.05
2018-12-22T02:23:54.364Z,73.96
2018-12-22T02:24:58.405Z,73.84
2018-12-22T02:26:02.434Z,73.64
2018-12-22T02:27:06.523Z,73.92
2018-12-22T02:28:10.543Z,73.57
2018-12-22T02:29:15.569Z,73.49
2018-12-22T02:30:19.612Z,73.75
2018-12-22T02:31:23.623Z,73.57
2018-12-22T02:32:27.734Z,73.54
2018-12-22T02:33:31.799Z,73.12
2018-12-22T02:34:35.949Z,73.34
2018-12-22T02:35:40.055Z,73.13
2018-12-22T02:36:45.376Z,73.43
2018-12-22T02:37:49.458Z,73.31
2018-12-22T02:38:53.493Z,73.16
2018-12-22T02:39:57.625Z,73.11
2018-12-22T02:41:01.708Z,73.11
2018-12-22T02:42:05.825Z,73.04
2018-12-22T02:43:09.897Z,72.96
2018-12-22T02:44:13.902Z,72.85
2018-12-22T02:45:18.015Z,72.94
2018-12-22T02:46:22.176Z,72.82
2018-12-22T02:47:26.403Z,72.87
2018-12-22T02:48:30.474Z,72.69
2018-12-22T02:49:34.728Z,72.95
2018-12-22T02:50:38.808Z,72.80
2018-12-22T02:51:43.533Z,72.51
2018-12-22T02:52:47.531Z,72.71
2018-12-22T02:53:51.635Z,72.67
2018-12-22T02:54:55.889Z,72.60
2018-12-22T02:55:59.947Z,72.79
2018-12-22T02:57:04.137Z,72.52
2018-12-22T02:58:08.290Z,72.38
2018-12-22T02:59:12.312Z,72.38
2018-12-22T03:00:16.501Z,72.50
2018-12-22T03:01:20.569Z,72.39
2018-12-22T03:02:24.730Z,72.31
2018-12-22T03:03:28.861Z,72.42
2018-12-22T03:04:32.869Z,72.34
2018-12-22T03:05:36.988Z,72.42
2018-12-22T03:06:41.096Z,72.22
2018-12-22T03:07:45.307Z,72.31
2018-12-22T03:08:49.396Z,72.10
2018-12-22T03:09:53.889Z,72.00
2018-12-22T03:10:57.914Z,71.97
2018-12-22T03:12:02.094Z,71.97
2018-12-22T03:13:06.146Z,72.34
2018-12-22T03:14:10.243Z,72.06
2018-12-22T03:15:14.372Z,72.09
2018-12-22T03:16:18.445Z,72.09
2018-12-22T03:17:22.512Z,72.01
2018-12-22T03:18:26.543Z,71.95
2018-12-22T03:19:30.549Z,71.91
2018-12-22T03:20:34.648Z,72.06
2018-12-22T03:21:38.678Z,72.17
2018-12-22T03:22:42.708Z,71.98
2018-12-22T03:23:46.757Z,71.86
2018-12-22T03:24:50.775Z,71.80
2018-12-22T03:25:54.831Z,71.96
2018-12-22T03:26:58.894Z,71.87
2018-12-22T03:28:03.106Z,71.62
2018-12-22T03:29:15.260Z,71.73
2018-12-22T03:30:13.388Z,72.05
2018-12-22T03:31:17.567Z,71.98
2018-12-22T03:32:21.735Z,71.89
2018-12-22T03:33:25.929Z,72.16
2018-12-22T03:34:29.934Z,72.38
2018-12-22T03:35:34.005Z,72.20
2018-12-22T03:36:38.202Z,72.30
2018-12-22T03:37:42.239Z,72.61
2018-12-22T03:38:46.418Z,72.40
2018-12-22T03:39:50.596Z,72.83
2018-12-22T03:40:54.666Z,73.07
2018-12-22T03:41:58.758Z,72.94
2018-12-22T03:43:02.830Z,72.88
2018-12-22T03:44:06.986Z,73.20
2018-12-22T03:45:11.102Z,73.45
2018-12-22T03:46:15.150Z,73.75
2018-12-22T03:47:19.144Z,73.96
2018-12-22T03:48:23.230Z,73.95
2018-12-22T03:49:27.445Z,74.43
2018-12-22T03:50:31.587Z,74.42
2018-12-22T03:51:35.708Z,74.56
2018-12-22T03:52:39.756Z,74.91
2018-12-22T03:53:43.779Z,75.29
2018-12-22T03:54:48.049Z,75.25
2018-12-22T03:55:52.301Z,75.48
2018-12-22T03:56:56.461Z,75.58
2018-12-22T03:58:00.508Z,75.70
2018-12-22T03:59:04.661Z,75.90
2018-12-22T04:00:08.847Z,76.17
2018-12-22T04:01:12.909Z,76.05
2018-12-22T04:02:17.069Z,76.42
2018-12-22T04:03:21.113Z,76.42
2018-12-22T04:04:25.140Z,76.47
2018-12-22T04:05:29.190Z,76.73
2018-12-22T04:06:33.226Z,76.58
2018-12-22T04:07:37.491Z,76.72
2018-12-22T04:08:41.595Z,76.94
2018-12-22T04:09:45.607Z,76.84
2018-12-22T04:10:49.935Z,76.72
2018-12-22T04:11:54.001Z,76.81
2018-12-22T04:12:58.066Z,77.13
2018-12-22T04:14:02.132Z,76.91
2018-12-22T04:15:06.615Z,77.08
2018-12-22T04:16:10.718Z,77.13
2018-12-22T04:17:14.850Z,76.98
2018-12-22T04:18:18.960Z,77.24
2018-12-22T04:19:23.268Z,77.40
2018-12-22T04:20:27.427Z,77.10
2018-12-22T04:21:31.502Z,76.91
2018-12-22T04:22:35.642Z,77.09
2018-12-22T04:23:39.687Z,77.22
2018-12-22T04:24:43.846Z,77.53
2018-12-22T04:25:48.017Z,77.09
2018-12-22T04:26:52.262Z,76.97
2018-12-22T04:27:56.339Z,77.36
2018-12-22T04:29:00.397Z,77.24
2018-12-22T04:30:04.828Z,77.44
2018-12-22T04:31:08.825Z,77.11
2018-12-22T04:32:12.829Z,76.96
2018-12-22T04:33:16.913Z,77.23
2018-12-22T04:34:20.944Z,77.27
2018-12-22T04:35:25.023Z,77.60
2018-12-22T04:36:29.254Z,77.28
2018-12-22T04:37:33.349Z,77.28
2018-12-22T04:38:37.445Z,76.96
2018-12-22T04:39:41.457Z,77.60
2018-12-22T04:40:45.489Z,77.49
2018-12-22T04:41:49.496Z,77.58
2018-12-22T04:42:53.522Z,77.14
2018-12-22T04:43:57.531Z,77.52
2018-12-22T04:45:01.667Z,77.21
2018-12-22T04:46:05.813Z,77.24
2018-12-22T04:47:09.848Z,77.21
2018-12-22T04:48:13.962Z,77.65
2018-12-22T04:49:18.059Z,76.75
2018-12-22T04:50:22.041Z,76.96
2018-12-22T04:51:26.132Z,76.96
2018-12-22T04:52:30.191Z,76.89
2018-12-22T04:53:34.226Z,77.20
2018-12-22T04:54:38.279Z,76.89
2018-12-22T04:55:42.353Z,77.12
2018-12-22T04:56:46.386Z,77.40
2018-12-22T04:57:50.426Z,76.88
2018-12-22T04:58:54.429Z,76.71
2018-12-22T04:59:58.535Z,76.77
2018-12-22T05:01:02.564Z,76.96
2018-12-22T05:02:06.589Z,76.79
2018-12-22T05:03:10.618Z,76.70
2018-12-22T05:04:14.683Z,77.65
2018-12-22T05:05:18.728Z,77.17
2018-12-22T05:06:22.732Z,76.82
2018-12-22T05:07:26.891Z,76.86
2018-12-22T05:08:30.908Z,76.96
2018-12-22T05:09:34.981Z,77.20
2018-12-22T05:10:38.982Z,77.15
2018-12-22T05:11:43.318Z,77.15
2018-12-22T05:12:47.932Z,77.45
2018-12-22T05:13:52.000Z,77.10
2018-12-22T05:14:56.016Z,77.20
2018-12-22T05:16:00.022Z,77.07
2018-12-22T05:17:04.083Z,77.24
2018-12-22T05:18:08.109Z,77.50
2018-12-22T05:19:12.168Z,77.10
2018-12-22T05:20:16.220Z,77.94
2018-12-22T05:21:20.242Z,77.53
2018-12-22T05:22:24.244Z,77.30
2018-12-22T05:23:28.441Z,77.47
2018-12-22T05:24:32.432Z,77.61
2018-12-22T05:25:36.674Z,77.75
2018-12-22T05:26:40.726Z,77.15
2018-12-22T05:27:44.737Z,77.52
2018-12-22T05:28:48.798Z,77.72
2018-12-22T05:29:52.880Z,77.65
2018-12-22T05:30:56.962Z,77.96
2018-12-22T05:32:00.986Z,77.86
2018-12-22T05:33:04.989Z,77.81
2018-12-22T05:34:09.173Z,77.83
2018-12-22T05:35:13.307Z,77.97
2018-12-22T05:36:17.458Z,77.70
2018-12-22T05:37:21.566Z,77.81
2018-12-22T05:38:25.680Z,78.01
2018-12-22T05:39:29.714Z,78.07
2018-12-22T05:40:33.722Z,78.22
2018-12-22T05:41:37.738Z,78.18
2018-12-22T05:42:41.775Z,78.14
2018-12-22T05:43:45.900Z,77.91
2018-12-22T05:44:50.113Z,78.34
2018-12-22T05:45:54.173Z,78.37
2018-12-22T05:46:58.197Z,78.26
2018-12-22T05:48:02.362Z,78.56
2018-12-22T05:49:06.381Z,78.42
2018-12-22T05:50:10.528Z,78.66
2018-12-22T05:51:14.607Z,78.35
2018-12-22T05:52:18.721Z,78.46
2018-12-22T05:53:22.891Z,78.29
2018-12-22T05:54:26.917Z,78.40
2018-12-22T05:55:30.950Z,78.19
2018-12-22T05:56:34.966Z,78.25
2018-12-22T05:57:39.007Z,78.42
2018-12-22T05:58:43.123Z,78.38
2018-12-22T05:59:47.224Z,77.92
2018-12-22T06:00:51.360Z,77.77
2018-12-22T06:01:55.421Z,78.25
2018-12-22T06:02:59.477Z,77.95
2018-12-22T06:04:03.492Z,78.62
2018-12-22T06:05:09.039Z,78.75
2018-12-22T06:06:13.165Z,78.40
2018-12-22T06:07:17.313Z,78.48
2018-12-22T06:08:21.490Z,78.44
2018-12-22T06:09:25.565Z,78.33
2018-12-22T06:10:29.708Z,78.17
2018-12-22T06:11:33.806Z,78.22
2018-12-22T06:12:38.100Z,78.88
2018-12-22T06:13:42.177Z,78.78
2018-12-22T06:14:46.243Z,78.05
2018-12-22T06:15:50.391Z,78.10
2018-12-22T06:16:54.416Z,78.51
2018-12-22T06:17:58.441Z,78.40
2018-12-22T06:19:02.450Z,78.21
2018-12-22T06:20:08.731Z,77.88
2018-12-22T06:21:12.748Z,78.47
2018-12-22T06:22:16.747Z,77.68
2018-12-22T06:23:20.779Z,77.71
2018-12-22T06:24:24.812Z,78.29
2018-12-22T06:25:28.883Z,77.66
2018-12-22T06:26:32.907Z,77.53
2018-12-22T06:27:36.957Z,77.65
2018-12-22T06:28:40.978Z,77.50
2018-12-22T06:29:45.002Z,77.26
2018-12-22T06:30:49.071Z,77.43
2018-12-22T06:31:53.406Z,77.24
2018-12-22T06:32:57.490Z,77.71
2018-12-22T06:34:01.507Z,77.61
2018-12-22T06:35:05.818Z,77.07
2018-12-22T06:36:09.803Z,77.59
2018-12-22T06:37:13.830Z,77.51
2018-12-22T06:38:17.941Z,77.27
2018-12-22T06:39:22.097Z,77.28
2018-12-22T06:40:26.153Z,77.48
2018-12-22T06:41:30.334Z,77.06
2018-12-22T06:42:34.533Z,76.72
2018-12-22T06:43:38.573Z,77.04
2018-12-22T06:44:42.666Z,76.87
2018-12-22T06:45:46.741Z,77.03
2018-12-22T06:46:50.833Z,77.11
2018-12-22T06:47:54.850Z,76.89
2018-12-22T06:48:58.946Z,76.36
2018-12-22T06:50:03.192Z,76.48
2018-12-22T06:51:07.247Z,76.73
2018-12-22T06:52:11.363Z,76.45
2018-12-22T06:53:15.369Z,76.45
2018-12-22T06:54:19.385Z,76.04
2018-12-22T06:55:23.413Z,76.28
2018-12-22T06:56:27.562Z,76.31
2018-12-22T06:57:31.582Z,75.64
2018-12-22T06:58:35.679Z,76.15
2018-12-22T06:59:39.682Z,76.25
2018-12-22T07:00:43.899Z,75.55
2018-12-22T07:01:48.254Z,75.51
2018-12-22T07:02:52.306Z,75.64
2018-12-22T07:03:56.315Z,75.82
2018-12-22T07:05:02.114Z,75.37
2018-12-22T07:06:06.514Z,75.08
2018-12-22T07:07:10.618Z,75.77
2018-12-22T07:08:14.748Z,75.12
2018-12-22T07:09:18.749Z,75.20
2018-12-22T07:10:22.760Z,74.72
2018-12-22T07:11:26.842Z,74.51
2018-12-22T07:12:30.929Z,75.20
2018-12-22T07:13:35.322Z,74.60
2018-12-22T07:14:39.355Z,74.64
2018-12-22T07:15:43.413Z,74.86
2018-12-22T07:16:47.593Z,75.05
2018-12-22T07:17:51.688Z,74.50
2018-12-22T07:18:55.694Z,74.90
2018-12-22T07:19:59.889Z,74.45
2018-12-22T07:21:03.885Z,74.79
2018-12-22T07:22:07.987Z,75.10
2018-12-22T07:23:11.999Z,74.78
2018-12-22T07:24:16.063Z,75.04
2018-12-22T07:25:20.120Z,74.56
2018-12-22T07:26:24.137Z,74.81
2018-12-22T07:27:28.255Z,74.70
2018-12-22T07:28:32.333Z,74.95
2018-12-22T07:29:36.376Z,75.16
2018-12-22T07:30:40.469Z,74.83
2018-12-22T07:31:44.518Z,75.12
2018-12-22T07:32:56.697Z,74.60
2018-12-22T07:33:54.498Z,74.67
2018-12-22T07:34:58.580Z,74.86
2018-12-22T07:36:03.660Z,74.83
2018-12-22T07:37:07.668Z,74.99
2018-12-22T07:38:11.680Z,74.71
2018-12-22T07:39:16.171Z,74.61
2018-12-22T07:40:20.449Z,74.72
2018-12-22T07:41:24.502Z,74.78
2018-12-22T07:42:28.511Z,74.87
2018-12-22T07:43:32.547Z,75.33
2018-12-22T07:44:36.641Z,75.06
2018-12-22T07:45:40.701Z,75.22
2018-12-22T07:46:44.711Z,74.74
2018-12-22T07:47:48.777Z,75.13
2018-12-22T07:48:52.884Z,74.60
2018-12-22T07:49:56.917Z,75.12
2018-12-22T07:51:01.190Z,75.21
2018-12-22T07:52:05.217Z,74.93
2018-12-22T07:53:09.371Z,74.92
2018-12-22T07:54:13.462Z,75.22
2018-12-22T07:55:17.480Z,75.50
2018-12-22T07:56:21.797Z,75.31
2018-12-22T07:57:25.998Z,75.16
2018-12-22T07:58:30.059Z,75.44
2018-12-22T07:59:34.214Z,75.55
2018-12-22T08:00:38.318Z,75.60
2018-12-22T08:01:42.526Z,76.13
2018-12-22T08:02:46.603Z,75.54
2018-12-22T08:03:50.628Z,75.93
2018-12-22T08:04:54.706Z,75.51
2018-12-22T08:05:58.720Z,75.22
2018-12-22T08:07:02.817Z,75.63
2018-12-22T08:08:06.889Z,75.72
2018-12-22T08:09:11.199Z,76.08
2018-12-22T08:10:15.355Z,75.68
2018-12-22T08:11:19.510Z,75.46
2018-12-22T08:12:23.506Z,75.99
2018-12-22T08:13:27.628Z,75.78
2018-12-22T08:14:32.124Z,75.34
2018-12-22T08:15:36.226Z,75.71
2018-12-22T08:16:40.322Z,75.48
2018-12-22T08:17:44.324Z,75.22
2018-12-22T08:18:48.427Z,75.23
2018-12-22T08:19:52.734Z,75.12
2018-12-22T08:20:56.802Z,74.93
2018-12-22T08:22:00.847Z,74.83
2018-12-22T08:23:04.981Z,74.61
2018-12-22T08:24:09.263Z,74.63
2018-12-22T08:25:13.329Z,74.60
2018-12-22T08:26:17.356Z,75.00
2018-12-22T08:27:21.453Z,74.54
2018-12-22T08:28:25.465Z,74.06
2018-12-22T08:29:29.647Z,74.49
2018-12-22T08:30:33.838Z,73.79
2018-12-22T08:31:37.882Z,73.95
2018-12-22T08:32:41.989Z,74.29
2018-12-22T08:33:46.068Z,73.91
2018-12-22T08:34:50.049Z,73.64
2018-12-22T08:35:54.139Z,73.48
2018-12-22T08:36:58.148Z,73.67
2018-12-22T08:38:02.186Z,73.48
2018-12-22T08:39:07.306Z,73.29
2018-12-22T08:40:12.531Z,73.38
2018-12-22T08:41:16.518Z,73.55
2018-12-22T08:42:20.662Z,73.07
2018-12-22T08:43:24.722Z,73.37
2018-12-22T08:44:28.934Z,73.38
2018-12-22T08:45:32.960Z,73.40
2018-12-22T08:46:37.074Z,73.28
2018-12-22T08:47:41.168Z,73.61
2018-12-22T08:48:45.175Z,73.44
2018-12-22T08:49:49.266Z,73.14
2018-12-22T08:50:53.225Z,73.37
2018-12-22T08:51:57.874Z,72.92
2018-12-22T08:53:01.907Z,73.43
2018-12-22T08:54:06.246Z,72.97
2018-12-22T08:55:10.375Z,73.12
2018-12-22T08:56:14.430Z,72.85
2018-12-22T08:57:18.470Z,73.22
2018-12-22T08:58:22.574Z,72.88
2018-12-22T08:59:26.644Z,73.12
2018-12-22T09:00:30.719Z,73.19
2018-12-22T09:01:34.734Z,73.20
2018-12-22T09:02:38.826Z,73.07
2018-12-22T09:03:43.054Z,73.01
2018-12-22T09:04:47.168Z,73.00
2018-12-22T09:05:51.326Z,73.08
2018-12-22T09:06:55.409Z,73.39
2018-12-22T09:07:59.449Z,72.42
2018-12-22T09:09:05.500Z,72.80
2018-12-22T09:10:10.118Z,72.98
2018-12-22T09:11:14.184Z,72.42
2018-12-22T09:12:18.198Z,72.69
2018-12-22T09:13:22.295Z,72.37
2018-12-22T09:14:26.364Z,71.98
2018-12-22T09:15:30.814Z,71.91
2018-12-22T09:16:34.975Z,72.18
2018-12-22T09:17:39.221Z,72.12
2018-12-22T09:18:43.239Z,72.01
2018-12-22T09:19:47.366Z,72.07
2018-12-22T09:20:51.370Z,71.87
2018-12-22T09:21:55.466Z,71.74
2018-12-22T09:22:59.455Z,71.96
2018-12-22T09:24:03.466Z,71.60
2018-12-22T09:25:08.618Z,71.87
2018-12-22T09:26:12.624Z,71.78
2018-12-22T09:27:16.716Z,71.63
2018-12-22T09:28:20.858Z,71.61
2018-12-22T09:29:24.892Z,71.64
2018-12-22T09:30:28.903Z,71.66
2018-12-22T09:31:33.196Z,71.68
2018-12-22T09:32:37.485Z,71.47
2018-12-22T09:33:41.485Z,71.40
2018-12-22T09:34:45.510Z,71.24
2018-12-22T09:35:49.608Z,71.37
2018-12-22T09:36:53.750Z,71.15
2018-12-22T09:37:58.099Z,70.95
2018-12-22T09:39:02.404Z,71.33
2018-12-22T09:40:11.647Z,70.92
2018-12-22T09:41:15.773Z,70.58
2018-12-22T09:42:19.795Z,71.08
2018-12-22T09:43:23.977Z,71.01
2018-12-22T09:44:28.014Z,71.08
2018-12-22T09:45:32.226Z,70.96
2018-12-22T09:46:36.407Z,71.02
2018-12-22T09:47:40.398Z,70.92
2018-12-22T09:48:44.455Z,71.11
2018-12-22T09:49:48.635Z,71.25
2018-12-22T09:50:52.919Z,70.96
2018-12-22T09:51:57.054Z,70.79
2018-12-22T09:53:01.112Z,70.87
2018-12-22T09:54:05.249Z,70.70
2018-12-22T09:55:09.402Z,70.77
2018-12-22T09:56:13.440Z,70.75
2018-12-22T09:57:17.463Z,70.58
2018-12-22T09:58:21.491Z,70.75
2018-12-22T09:59:25.503Z,70.40
2018-12-22T10:00:29.566Z,70.83
2018-12-22T10:01:33.661Z,70.77
2018-12-22T10:02:37.978Z,70.62
2018-12-22T10:03:42.218Z,70.72
2018-12-22T10:04:46.249Z,70.57
2018-12-22T10:05:50.309Z,70.81
2018-12-22T10:06:54.387Z,70.56
2018-12-22T10:07:58.419Z,70.88
2018-12-22T10:09:02.510Z,70.57
2018-12-22T10:10:11.159Z,70.80
2018-12-22T10:11:15.217Z,70.52
2018-12-22T10:12:19.326Z,70.47
2018-12-22T10:13:23.306Z,70.68
2018-12-22T10:14:27.337Z,70.55
2018-12-22T10:15:31.591Z,70.85
2018-12-22T10:16:35.626Z,70.51
2018-12-22T10:17:39.769Z,70.36
2018-12-22T10:18:43.893Z,70.58
2018-12-22T10:19:47.857Z,70.47
2018-12-22T10:20:52.024Z,70.61
2018-12-22T10:21:56.131Z,70.49
2018-12-22T10:23:00.273Z,70.63
2018-12-22T10:24:04.453Z,70.67
2018-12-22T10:25:11.147Z,70.53
2018-12-22T10:26:15.170Z,70.45
2018-12-22T10:27:19.249Z,70.60
2018-12-22T10:28:23.263Z,70.63
2018-12-22T10:29:27.320Z,70.70
2018-12-22T10:30:31.459Z,70.58
2018-12-22T10:31:35.538Z,70.63
2018-12-22T10:32:39.625Z,70.44
2018-12-22T10:33:43.767Z,70.74
2018-12-22T10:34:47.887Z,70.80
2018-12-22T10:35:51.959Z,70.56
2018-12-22T10:36:56.063Z,70.74
2018-12-22T10:38:00.136Z,70.53
2018-12-22T10:39:06.465Z,70.50
2018-12-22T10:40:10.533Z,70.46
2018-12-22T10:41:14.554Z,70.68
2018-12-22T10:42:18.730Z,70.74
2018-12-22T10:43:22.726Z,70.40
2018-12-22T10:44:26.842Z,70.72
2018-12-22T10:45:31.074Z,70.77
2018-12-22T10:46:35.106Z,70.62
2018-12-22T10:47:39.470Z,70.61
2018-12-22T10:48:43.875Z,70.84
2018-12-22T10:49:47.923Z,70.65
2018-12-22T10:50:52.020Z,70.73
2018-12-22T10:51:56.304Z,70.76
2018-12-22T10:53:00.314Z,70.72
2018-12-22T10:54:04.505Z,70.67
2018-12-22T10:55:09.663Z,70.74
2018-12-22T10:56:13.639Z,70.77
2018-12-22T10:57:17.727Z,70.75
2018-12-22T10:58:21.847Z,71.02
2018-12-22T10:59:26.023Z,71.10
2018-12-22T11:00:30.098Z,71.19
2018-12-22T11:01:34.252Z,71.12
2018-12-22T11:02:38.311Z,71.23
2018-12-22T11:03:42.415Z,71.17
2018-12-22T11:04:46.618Z,71.11
2018-12-22T11:05:50.619Z,71.12
2018-12-22T11:06:54.711Z,71.13
2018-12-22T11:07:58.735Z,71.41
2018-12-22T11:09:02.948Z,71.42
2018-12-22T11:10:10.089Z,71.43
2018-12-22T11:11:14.113Z,71.36
2018-12-22T11:12:18.130Z,71.86
2018-12-22T11:13:22.113Z,71.45
2018-12-22T11:14:26.140Z,71.42
2018-12-22T11:15:30.142Z,71.31
2018-12-22T11:16:34.422Z,71.46
2018-12-22T11:17:38.471Z,71.26
2018-12-22T11:18:42.618Z,71.80
2018-12-22T11:19:46.812Z,71.48
2018-12-22T11:20:50.836Z,71.75
2018-12-22T11:21:54.863Z,71.85
2018-12-22T11:22:58.857Z,71.71
2018-12-22T11:24:03.084Z,71.64
2018-12-22T11:25:12.855Z,71.73
2018-12-22T11:26:16.976Z,71.95
2018-12-22T11:27:21.160Z,71.94
2018-12-22T11:28:25.212Z,72.12
2018-12-22T11:29:29.266Z,71.86
2018-12-22T11:30:35.955Z,72.02
2018-12-22T11:31:40.070Z,71.62
2018-12-22T11:32:44.154Z,71.70
2018-12-22T11:33:48.275Z,71.88
2018-12-22T11:34:52.483Z,71.74
2018-12-22T11:35:56.516Z,71.84
2018-12-22T11:37:00.534Z,71.60
2018-12-22T11:38:04.576Z,71.77
2018-12-22T11:39:08.606Z,71.71
2018-12-22T11:40:12.789Z,71.81
2018-12-22T11:41:16.794Z,71.78
2018-12-22T11:42:20.835Z,71.76
2018-12-22T11:43:24.849Z,72.06
2018-12-22T11:44:28.846Z,71.84
2018-12-22T11:45:32.888Z,71.97
2018-12-22T11:46:38.413Z,71.77
2018-12-22T11:47:52.075Z,72.00
2018-12-22T11:50:01.843Z,72.01
2018-12-22T11:51:05.991Z,71.67
2018-12-22T11:52:10.118Z,71.76
2018-12-22T11:53:14.227Z,72.02
2018-12-22T11:54:18.241Z,72.05
2018-12-22T11:55:22.434Z,71.81
2018-12-22T11:56:26.594Z,72.12
2018-12-22T11:57:30.585Z,72.04
2018-12-22T11:58:34.797Z,71.96
2018-12-22T11:59:39.021Z,72.10
2018-12-22T12:00:43.247Z,72.04
2018-12-22T12:01:47.280Z,71.92
2018-12-22T12:02:51.306Z,72.09
2018-12-22T12:03:55.314Z,72.02
2018-12-22T12:04:59.450Z,72.12
2018-12-22T12:06:03.566Z,71.97
2018-12-22T12:07:07.595Z,72.07
2018-12-22T12:08:12.038Z,71.72
2018-12-22T12:09:16.144Z,71.67
2018-12-22T12:10:20.307Z,71.84
2018-12-22T12:11:24.372Z,71.68
2018-12-22T12:12:28.405Z,71.62
2018-12-22T12:13:32.446Z,71.74
2018-12-22T12:14:36.880Z,71.67
2018-12-22T12:15:53.627Z,71.94
2018-12-22T12:17:07.083Z,71.71
2018-12-22T12:18:21.938Z,71.72
2018-12-22T12:19:28.760Z,71.61
2018-12-22T12:20:32.841Z,71.85
2018-12-22T12:21:37.323Z,71.62
2018-12-22T12:22:41.940Z,71.71
2018-12-22T12:23:46.037Z,71.62
2018-12-22T12:24:50.041Z,71.90
2018-12-22T12:25:54.040Z,71.78
2018-12-22T12:26:58.063Z,71.94
2018-12-22T12:28:02.072Z,71.72
2018-12-22T12:29:06.138Z,71.43
2018-12-22T12:30:10.810Z,71.61
2018-12-22T12:31:14.866Z,71.39
2018-12-22T12:32:18.917Z,71.47
2018-12-22T12:33:23.044Z,71.33
2018-12-22T12:34:27.049Z,71.38
2018-12-22T12:35:31.123Z,71.33
2018-12-22T12:36:35.225Z,71.11
2018-12-22T12:37:39.217Z,71.17
2018-12-22T12:38:43.299Z,70.80
2018-12-22T12:39:47.274Z,70.99
2018-12-22T12:40:51.367Z,70.95
2018-12-22T12:41:55.366Z,70.89
2018-12-22T12:42:59.435Z,70.49
2018-12-22T12:44:03.709Z,70.73
2018-12-22T12:45:10.881Z,70.65
2018-12-22T12:46:15.208Z,70.49
2018-12-22T12:47:19.246Z,70.69
2018-12-22T12:48:24.781Z,70.46
2018-12-22T12:49:28.901Z,70.54
2018-12-22T12:50:33.516Z,70.45
2018-12-22T12:51:37.615Z,70.50
2018-12-22T12:52:41.877Z,70.42
2018-12-22T12:53:46.052Z,70.10
2018-12-22T12:54:50.157Z,70.11
2018-12-22T12:55:54.416Z,70.22
2018-12-22T12:56:59.498Z,69.97
2018-12-22T12:58:03.607Z,69.87
2018-12-22T12:59:07.613Z,69.92
2018-12-22T13:00:13.598Z,70.06
2018-12-22T13:01:17.646Z,69.79
2018-12-22T13:02:21.770Z,69.91
2018-12-22T13:03:25.942Z,69.93
2018-12-22T13:04:30.199Z,69.84
2018-12-22T13:05:34.189Z,69.73
2018-12-22T13:06:38.496Z,69.49
2018-12-22T13:07:42.866Z,69.70
2018-12-22T13:08:46.918Z,69.57
2018-12-22T13:09:50.910Z,69.71
2018-12-22T13:10:55.016Z,69.40
2018-12-22T13:12:05.035Z,69.61
2018-12-22T13:13:50.929Z,69.75
2018-12-22T13:14:54.959Z,69.10
2018-12-22T13:15:59.007Z,69.18
2018-12-22T13:17:03.171Z,69.34
2018-12-22T13:18:07.242Z,69.46
2018-12-22T13:19:11.345Z,69.17
2018-12-22T13:20:15.518Z,69.08
2018-12-22T13:21:19.730Z,69.12
2018-12-22T13:22:23.886Z,68.92
2018-12-22T13:23:27.856Z,68.99
2018-12-22T13:24:32.035Z,68.77
2018-12-22T13:25:36.138Z,68.56
2018-12-22T13:26:40.270Z,68.83
2018-12-22T13:27:44.393Z,68.44
2018-12-22T13:28:48.562Z,68.57
2018-12-22T13:29:52.586Z,68.46
2018-12-22T13:30:56.580Z,68.39
2018-12-22T13:32:09.203Z,68.21
2018-12-22T13:33:07.045Z,67.89
2018-12-22T13:34:11.122Z,67.76
2018-12-22T13:35:15.274Z,67.55
2018-12-22T13:36:20.337Z,67.44
2018-12-22T13:37:24.539Z,67.22
2018-12-22T13:38:29.136Z,66.96
2018-12-22T13:39:33.156Z,66.82
2018-12-22T13:40:37.195Z,66.68
2018-12-22T13:41:41.206Z,66.96
2018-12-22T13:42:45.264Z,67.18
2018-12-22T13:43:49.327Z,67.22
2018-12-22T13:44:53.493Z,67.77
2018-12-22T13:45:57.605Z,68.15
2018-12-22T13:47:01.634Z,68.22
2018-12-22T13:48:05.921Z,68.57
2018-12-22T13:49:10.487Z,68.84